createdAt,value
2022-07-31T00:00:13.674Z,86.35
2022-07-31T00:00:45.775Z,85.81
2022-07-31T00:01:17.469Z,85.92
2022-07-31T00:01:49.486Z,86.41
2022-07-31T00:02:21.037Z,85.93
2022-07-31T00:02:52.860Z,85.93
2022-07-31T00:03:24.475Z,85.98
2022-07-31T00:03:56.141Z,85.68
2022-07-31T00:04:28.354Z,86.06
2022-07-31T00:04:59.950Z,85.99
2022-07-31T00:05:31.538Z,85.99
2022-07-31T00:06:10.284Z,86.02
2022-07-31T00:06:43.711Z,86.04
2022-07-31T00:07:15.289Z,85.86
2022-07-31T00:07:46.942Z,85.86
2022-07-31T00:08:18.539Z,86.72
2022-07-31T00:08:50.678Z,85.84
2022-07-31T00:09:52.701Z,85.56
2022-07-31T00:10:13.919Z,86.17
2022-07-31T00:10:45.534Z,85.86
2022-07-31T00:11:17.646Z,86.42
2022-07-31T00:11:49.231Z,86.00
2022-07-31T00:12:21.655Z,86.49
2022-07-31T00:12:53.314Z,85.85
2022-07-31T00:13:56.534Z,86.09
2022-07-31T00:14:16.453Z,86.18
2022-07-31T00:14:48.737Z,86.44
2022-07-31T00:15:20.805Z,86.30
2022-07-31T00:15:52.533Z,85.49
2022-07-31T00:16:24.072Z,86.11
2022-07-31T00:16:55.713Z,86.93
2022-07-31T00:17:27.660Z,85.93
2022-07-31T00:17:59.225Z,85.98
2022-07-31T00:18:30.806Z,86.27
2022-07-31T00:19:02.404Z,86.03
2022-07-31T00:19:34.022Z,86.36
2022-07-31T00:20:06.889Z,85.80
2022-07-31T00:20:38.733Z,85.82
2022-07-31T00:21:10.654Z,85.79
2022-07-31T00:21:42.214Z,86.33
2022-07-31T00:22:13.777Z,85.76
2022-07-31T00:22:46.976Z,85.81
2022-07-31T00:23:18.955Z,85.34
2022-07-31T00:23:50.707Z,85.46
2022-07-31T00:24:22.557Z,85.19
2022-07-31T00:24:54.287Z,84.92
2022-07-31T00:25:26.078Z,84.74
2022-07-31T00:25:57.827Z,84.77
2022-07-31T00:26:29.445Z,84.88
2022-07-31T00:27:01.554Z,84.98
2022-07-31T00:27:33.379Z,85.05
2022-07-31T00:28:06.647Z,84.86
2022-07-31T00:28:38.265Z,85.03
2022-07-31T00:29:10.921Z,85.24
2022-07-31T00:29:47.610Z,85.02
2022-07-31T00:30:19.197Z,85.64
2022-07-31T00:30:50.824Z,85.77
2022-07-31T00:31:22.590Z,84.95
2022-07-31T00:31:54.155Z,84.77
2022-07-31T00:32:25.830Z,84.52
2022-07-31T00:32:57.460Z,84.65
2022-07-31T00:33:29.213Z,84.77
2022-07-31T00:34:00.770Z,85.17
2022-07-31T00:34:32.398Z,85.76
2022-07-31T00:35:04.586Z,85.15
2022-07-31T00:35:36.177Z,84.93
2022-07-31T00:36:07.911Z,85.57
2022-07-31T00:36:39.612Z,85.15
2022-07-31T00:37:11.255Z,85.00
2022-07-31T00:37:44.462Z,84.75
2022-07-31T00:38:31.901Z,84.64
2022-07-31T00:39:03.762Z,84.87
2022-07-31T00:39:35.499Z,84.91
2022-07-31T00:40:08.695Z,84.61
2022-07-31T00:40:47.872Z,85.59
2022-07-31T00:41:19.466Z,85.28
2022-07-31T00:41:51.127Z,85.14
2022-07-31T00:42:24.906Z,84.60
2022-07-31T00:42:56.511Z,84.84
2022-07-31T00:43:30.996Z,85.53
2022-07-31T00:44:02.648Z,85.53
2022-07-31T00:44:35.573Z,85.64
2022-07-31T00:45:13.258Z,84.55
2022-07-31T00:45:46.108Z,84.65
2022-07-31T00:46:22.073Z,84.94
2022-07-31T00:46:54.861Z,84.43
2022-07-31T00:47:27.309Z,84.31
2022-07-31T00:47:58.893Z,84.16
2022-07-31T00:48:31.162Z,84.37
2022-07-31T00:49:02.842Z,84.28
2022-07-31T00:49:37.722Z,84.15
2022-07-31T00:50:10.803Z,83.88
2022-07-31T00:50:42.378Z,83.76
2022-07-31T00:51:13.963Z,84.10
2022-07-31T00:51:45.551Z,83.86
2022-07-31T00:52:17.151Z,83.73
2022-07-31T00:52:48.767Z,83.51
2022-07-31T00:53:20.417Z,83.22
2022-07-31T00:53:51.986Z,83.63
2022-07-31T00:54:23.639Z,83.55
2022-07-31T00:54:55.217Z,83.57
2022-07-31T00:55:26.799Z,84.09
2022-07-31T00:55:58.408Z,83.28
2022-07-31T00:56:29.985Z,83.72
2022-07-31T00:57:02.815Z,83.62
2022-07-31T00:57:35.006Z,83.17
2022-07-31T00:58:06.593Z,83.39
2022-07-31T00:58:38.174Z,83.80
2022-07-31T00:59:09.822Z,83.37
2022-07-31T00:59:41.443Z,83.67
2022-07-31T01:00:13.786Z,83.44
2022-07-31T01:00:45.387Z,84.27
2022-07-31T01:01:17.059Z,83.65
2022-07-31T01:01:48.682Z,84.26
2022-07-31T01:02:20.233Z,84.03
2022-07-31T01:02:51.884Z,84.78
2022-07-31T01:03:23.506Z,84.48
2022-07-31T01:03:55.173Z,84.51
2022-07-31T01:04:26.785Z,84.20
2022-07-31T01:04:58.997Z,84.59
2022-07-31T01:05:31.058Z,83.75
2022-07-31T01:06:03.493Z,84.04
2022-07-31T01:06:36.774Z,84.36
2022-07-31T01:07:11.436Z,84.42
2022-07-31T01:07:43.059Z,84.24
2022-07-31T01:08:15.489Z,84.44
2022-07-31T01:08:47.066Z,84.36
2022-07-31T01:09:18.699Z,84.27
2022-07-31T01:09:51.204Z,84.39
2022-07-31T01:10:35.934Z,84.47
2022-07-31T01:11:51.848Z,84.49
2022-07-31T01:12:38.694Z,84.51
2022-07-31T01:13:20.918Z,84.32
2022-07-31T01:13:56.742Z,84.42
2022-07-31T01:14:33.900Z,84.36
2022-07-31T01:15:09.186Z,83.73
2022-07-31T01:15:41.990Z,84.64
2022-07-31T01:16:15.414Z,84.39
2022-07-31T01:16:49.308Z,84.26
2022-07-31T01:17:23.198Z,83.99
2022-07-31T01:17:56.614Z,84.23
2022-07-31T01:18:32.122Z,84.46
2022-07-31T01:19:42.326Z,84.52
2022-07-31T01:20:15.349Z,84.58
2022-07-31T01:20:49.677Z,84.32
2022-07-31T01:21:29.162Z,83.94
2022-07-31T01:22:32.891Z,83.63
2022-07-31T01:23:55.259Z,84.32
2022-07-31T01:25:18.821Z,84.74
2022-07-31T01:26:19.517Z,84.92
2022-07-31T01:26:59.786Z,84.76
2022-07-31T01:27:50.518Z,84.49
2022-07-31T01:28:45.707Z,84.71
2022-07-31T01:29:44.805Z,85.12
2022-07-31T01:30:17.263Z,84.72
2022-07-31T01:32:04.110Z,85.08
2022-07-31T01:32:40.946Z,84.64
2022-07-31T01:33:19.228Z,85.25
2022-07-31T01:33:53.778Z,85.40
2022-07-31T01:34:34.103Z,85.35
2022-07-31T01:35:11.654Z,84.91
2022-07-31T01:35:47.910Z,84.95
2022-07-31T01:36:26.798Z,85.06
2022-07-31T01:37:12.526Z,85.11
2022-07-31T01:37:47.638Z,84.90
2022-07-31T01:38:35.405Z,84.39
2022-07-31T01:39:07.029Z,84.74
2022-07-31T01:39:43.505Z,84.65
2022-07-31T01:40:18.996Z,84.85
2022-07-31T01:41:12.462Z,84.71
2022-07-31T01:41:47.328Z,84.60
2022-07-31T01:42:21.163Z,84.37
2022-07-31T01:42:58.333Z,85.03
2022-07-31T01:43:35.190Z,84.49
2022-07-31T01:44:08.014Z,84.34
2022-07-31T01:44:51.243Z,85.02
2022-07-31T01:45:26.369Z,84.61
2022-07-31T01:46:00.723Z,84.32
2022-07-31T01:46:37.294Z,84.21
2022-07-31T01:47:19.554Z,84.20
2022-07-31T01:47:53.936Z,83.58
2022-07-31T01:48:25.872Z,83.67
2022-07-31T01:48:58.036Z,83.71
2022-07-31T01:49:30.883Z,83.94
2022-07-31T01:50:04.841Z,83.99
2022-07-31T01:50:43.981Z,83.71
2022-07-31T01:51:18.015Z,83.77
2022-07-31T01:51:50.121Z,83.99
2022-07-31T01:52:26.594Z,84.27
2022-07-31T01:53:00.888Z,83.71
2022-07-31T01:53:32.750Z,84.58
2022-07-31T01:54:05.328Z,84.18
2022-07-31T01:54:38.247Z,83.72
2022-07-31T01:55:12.923Z,83.87
2022-07-31T01:56:02.409Z,83.80
2022-07-31T01:56:37.036Z,83.49
2022-07-31T01:57:10.765Z,83.76
2022-07-31T01:57:46.782Z,83.66
2022-07-31T01:58:20.831Z,83.66
2022-07-31T01:58:54.706Z,83.58
2022-07-31T01:59:27.970Z,83.48
2022-07-31T02:00:07.187Z,83.99
2022-07-31T02:01:08.971Z,83.32
2022-07-31T02:01:45.408Z,83.32
2022-07-31T02:02:19.449Z,83.26
2022-07-31T02:02:54.526Z,84.00
2022-07-31T02:03:44.277Z,83.78
2022-07-31T02:04:19.640Z,84.35
2022-07-31T02:04:51.798Z,84.48
2022-07-31T02:05:25.495Z,83.62
2022-07-31T02:06:00.936Z,83.19
2022-07-31T02:06:35.507Z,83.36
2022-07-31T02:07:08.301Z,83.43
2022-07-31T02:07:45.659Z,83.45
2022-07-31T02:08:18.240Z,83.69
2022-07-31T02:08:53.886Z,82.95
2022-07-31T02:09:26.072Z,82.96
2022-07-31T02:09:59.275Z,82.96
2022-07-31T02:10:32.087Z,83.30
2022-07-31T02:11:03.900Z,83.20
2022-07-31T02:11:36.085Z,82.91
2022-07-31T02:12:33.941Z,83.16
2022-07-31T02:13:06.949Z,83.60
2022-07-31T02:13:38.714Z,83.73
2022-07-31T02:14:10.451Z,83.41
2022-07-31T02:14:43.383Z,83.67
2022-07-31T02:15:16.779Z,83.34
2022-07-31T02:15:48.903Z,83.36
2022-07-31T02:16:21.502Z,83.43
2022-07-31T02:16:53.813Z,83.10
2022-07-31T02:17:26.461Z,83.39
2022-07-31T02:18:00.107Z,83.59
2022-07-31T02:18:34.142Z,83.32
2022-07-31T02:19:07.715Z,83.42
2022-07-31T02:19:40.777Z,83.10
2022-07-31T02:20:32.699Z,83.18
2022-07-31T02:21:04.573Z,83.37
2022-07-31T02:21:36.223Z,82.93
2022-07-31T02:22:08.028Z,83.42
2022-07-31T02:22:40.077Z,83.73
2022-07-31T02:23:12.099Z,83.54
2022-07-31T02:23:43.923Z,83.19
2022-07-31T02:24:16.105Z,83.28
2022-07-31T02:24:47.803Z,84.12
2022-07-31T02:25:19.525Z,83.11
2022-07-31T02:25:51.238Z,83.68
2022-07-31T02:26:24.728Z,83.49
2022-07-31T02:26:58.166Z,82.85
2022-07-31T02:27:53.647Z,83.29
2022-07-31T02:28:23.245Z,83.26
2022-07-31T02:28:55.673Z,83.28
2022-07-31T02:29:30.129Z,83.86
2022-07-31T02:30:03.810Z,83.49
2022-07-31T02:30:38.558Z,83.49
2022-07-31T02:31:13.168Z,83.39
2022-07-31T02:31:46.638Z,83.46
2022-07-31T02:32:18.503Z,83.49
2022-07-31T02:32:50.589Z,83.36
2022-07-31T02:33:25.469Z,83.28
2022-07-31T02:33:57.117Z,83.02
2022-07-31T02:34:30.423Z,82.94
2022-07-31T02:35:04.379Z,83.90
2022-07-31T02:35:36.581Z,82.73
2022-07-31T02:36:09.013Z,82.87
2022-07-31T02:36:41.246Z,82.89
2022-07-31T02:37:15.261Z,83.07
2022-07-31T02:37:51.426Z,82.78
2022-07-31T02:38:26.550Z,82.55
2022-07-31T02:38:58.793Z,82.55
2022-07-31T02:39:32.489Z,82.60
2022-07-31T02:40:05.685Z,81.79
2022-07-31T02:40:39.109Z,82.08
2022-07-31T02:41:15.573Z,82.48
2022-07-31T02:41:48.363Z,82.89
2022-07-31T02:42:21.501Z,82.27
2022-07-31T02:42:54.188Z,82.07
2022-07-31T02:43:27.553Z,82.44
2022-07-31T02:43:59.359Z,82.09
2022-07-31T02:44:34.544Z,82.22
2022-07-31T02:45:08.742Z,82.74
2022-07-31T02:45:42.671Z,82.49
2022-07-31T02:46:15.198Z,82.86
2022-07-31T02:46:47.919Z,82.05
2022-07-31T02:47:20.388Z,82.02
2022-07-31T02:47:52.074Z,82.53
2022-07-31T02:48:25.449Z,81.71
2022-07-31T02:48:57.593Z,82.25
2022-07-31T02:49:30.575Z,82.53
2022-07-31T02:50:03.945Z,82.13
2022-07-31T02:50:36.262Z,82.56
2022-07-31T02:51:08.619Z,82.53
2022-07-31T02:51:42.751Z,82.44
2022-07-31T02:52:15.423Z,82.78
2022-07-31T02:52:47.380Z,82.34
2022-07-31T02:53:19.805Z,82.95
2022-07-31T02:53:51.503Z,82.84
2022-07-31T02:54:25.109Z,82.92
2022-07-31T02:54:59.360Z,82.49
2022-07-31T02:55:31.277Z,82.53
2022-07-31T02:56:04.557Z,82.50
2022-07-31T02:56:37.315Z,82.76
2022-07-31T02:57:11.990Z,82.71
2022-07-31T02:57:44.370Z,82.38
2022-07-31T02:58:16.200Z,82.53
2022-07-31T02:58:47.828Z,82.91
2022-07-31T02:59:19.863Z,82.77
2022-07-31T02:59:51.913Z,82.87
2022-07-31T03:00:24.035Z,82.93
2022-07-31T03:01:06.022Z,82.78
2022-07-31T03:01:37.799Z,83.00
2022-07-31T03:02:09.910Z,83.00
2022-07-31T03:02:42.365Z,83.02
2022-07-31T03:03:13.939Z,83.04
2022-07-31T03:03:45.886Z,82.88
2022-07-31T03:04:17.544Z,82.84
2022-07-31T03:04:49.157Z,83.22
2022-07-31T03:05:21.959Z,83.45
2022-07-31T03:05:53.582Z,82.62
2022-07-31T03:06:25.242Z,83.05
2022-07-31T03:06:56.942Z,82.76
2022-07-31T03:07:28.569Z,83.28
2022-07-31T03:08:00.143Z,83.29
2022-07-31T03:08:31.764Z,83.49
2022-07-31T03:09:03.616Z,82.96
2022-07-31T03:09:35.298Z,83.11
2022-07-31T03:10:07.122Z,82.98
2022-07-31T03:10:38.690Z,83.28
2022-07-31T03:11:11.158Z,83.09
2022-07-31T03:11:43.067Z,83.02
2022-07-31T03:12:14.647Z,83.19
2022-07-31T03:12:50.216Z,83.46
2022-07-31T03:13:24.486Z,83.08
2022-07-31T03:13:58.546Z,83.32
2022-07-31T03:14:32.999Z,83.06
2022-07-31T03:15:06.229Z,83.17
2022-07-31T03:15:40.660Z,83.16
2022-07-31T03:16:14.559Z,83.05
2022-07-31T03:16:48.088Z,82.61
2022-07-31T03:17:20.122Z,82.55
2022-07-31T03:17:53.322Z,82.83
2022-07-31T03:18:25.844Z,83.40
2022-07-31T03:18:57.796Z,83.13
2022-07-31T03:19:30.821Z,83.66
2022-07-31T03:20:02.471Z,83.14
2022-07-31T03:20:35.006Z,83.05
2022-07-31T03:21:09.412Z,82.52
2022-07-31T03:21:41.850Z,82.49
2022-07-31T03:22:15.553Z,82.86
2022-07-31T03:22:47.387Z,82.86
2022-07-31T03:23:22.064Z,83.07
2022-07-31T03:23:54.476Z,83.12
2022-07-31T03:24:27.026Z,82.82
2022-07-31T03:24:59.120Z,82.53
2022-07-31T03:25:32.518Z,82.66
2022-07-31T03:26:05.387Z,82.98
2022-07-31T03:26:37.067Z,82.63
2022-07-31T03:27:08.904Z,82.89
2022-07-31T03:27:40.550Z,82.86
2022-07-31T03:28:12.388Z,82.89
2022-07-31T03:28:43.973Z,83.18
2022-07-31T03:29:39.084Z,82.70
2022-07-31T03:30:15.240Z,83.17
2022-07-31T03:30:56.510Z,83.08
2022-07-31T03:31:31.745Z,82.68
2022-07-31T03:32:03.690Z,82.44
2022-07-31T03:32:36.590Z,82.55
2022-07-31T03:33:08.477Z,82.31
2022-07-31T03:33:40.131Z,81.93
2022-07-31T03:34:13.673Z,81.89
2022-07-31T03:34:45.303Z,82.47
2022-07-31T03:35:18.138Z,82.34
2022-07-31T03:35:49.926Z,82.57
2022-07-31T03:36:22.094Z,82.43
2022-07-31T03:36:53.726Z,82.50
2022-07-31T03:37:25.316Z,82.26
2022-07-31T03:37:56.953Z,82.76
2022-07-31T03:38:41.467Z,82.52
2022-07-31T03:39:16.343Z,82.13
2022-07-31T03:39:47.966Z,82.45
2022-07-31T03:40:19.799Z,82.30
2022-07-31T03:40:51.391Z,82.30
2022-07-31T03:41:22.999Z,82.12
2022-07-31T03:41:55.797Z,82.36
2022-07-31T03:42:29.014Z,82.53
2022-07-31T03:43:02.922Z,82.19
2022-07-31T03:43:44.223Z,82.37
2022-07-31T03:44:20.816Z,81.84
2022-07-31T03:44:52.897Z,82.51
2022-07-31T03:45:25.444Z,82.27
2022-07-31T03:46:01.858Z,81.94
2022-07-31T03:46:33.986Z,82.28
2022-07-31T03:47:06.026Z,82.43
2022-07-31T03:47:38.058Z,82.58
2022-07-31T03:48:10.229Z,81.91
2022-07-31T03:48:42.042Z,82.08
2022-07-31T03:49:14.139Z,81.99
2022-07-31T03:49:46.739Z,82.20
2022-07-31T03:50:18.906Z,82.00
2022-07-31T03:50:50.961Z,81.74
2022-07-31T03:51:23.532Z,82.21
2022-07-31T03:51:55.844Z,81.74
2022-07-31T03:52:28.948Z,81.91
2022-07-31T03:53:00.609Z,81.84
2022-07-31T03:53:32.762Z,81.48
2022-07-31T03:54:04.492Z,82.13
2022-07-31T03:54:36.098Z,82.00
2022-07-31T03:55:08.252Z,82.01
2022-07-31T03:55:42.719Z,82.08
2022-07-31T03:56:15.559Z,81.89
2022-07-31T03:56:49.847Z,81.89
2022-07-31T03:57:22.362Z,82.22
2022-07-31T03:58:00.436Z,81.76
2022-07-31T03:58:32.297Z,81.90
2022-07-31T03:59:04.459Z,82.15
2022-07-31T03:59:40.749Z,82.00
2022-07-31T04:00:22.815Z,81.85
2022-07-31T04:00:55.776Z,81.59
2022-07-31T04:01:27.917Z,81.84
2022-07-31T04:02:19.526Z,81.47
2022-07-31T04:02:51.195Z,81.32
2022-07-31T04:03:22.836Z,81.73
2022-07-31T04:03:58.604Z,81.83
2022-07-31T04:04:30.228Z,81.63
2022-07-31T04:05:03.207Z,81.70
2022-07-31T04:05:37.574Z,81.58
2022-07-31T04:06:09.194Z,81.58
2022-07-31T04:06:40.784Z,81.83
2022-07-31T04:07:12.412Z,81.69
2022-07-31T04:07:43.978Z,82.18
2022-07-31T04:08:16.005Z,81.73
2022-07-31T04:08:47.609Z,82.15
2022-07-31T04:09:20.283Z,81.48
2022-07-31T04:09:51.928Z,81.63
2022-07-31T04:10:23.731Z,81.86
2022-07-31T04:10:55.356Z,81.65
2022-07-31T04:11:27.912Z,81.75
2022-07-31T04:11:59.544Z,81.32
2022-07-31T04:12:31.168Z,81.49
2022-07-31T04:13:03.920Z,81.19
2022-07-31T04:13:37.044Z,81.53
2022-07-31T04:14:08.648Z,81.91
2022-07-31T04:14:40.237Z,81.93
2022-07-31T04:15:11.831Z,82.03
2022-07-31T04:15:43.392Z,81.50
2022-07-31T04:16:14.987Z,81.68
2022-07-31T04:16:46.596Z,81.66
2022-07-31T04:17:18.428Z,81.29
2022-07-31T04:17:50.041Z,81.31
2022-07-31T04:18:22.216Z,81.39
2022-07-31T04:18:53.817Z,81.58
2022-07-31T04:19:25.424Z,81.58
2022-07-31T04:19:57.046Z,81.76
2022-07-31T04:20:29.990Z,81.79
2022-07-31T04:21:04.440Z,82.28
2022-07-31T04:21:36.029Z,82.04
2022-07-31T04:22:08.335Z,81.93
2022-07-31T04:22:41.574Z,82.20
2022-07-31T04:23:13.922Z,81.99
2022-07-31T04:23:49.491Z,81.92
2022-07-31T04:24:22.004Z,81.70
2022-07-31T04:24:53.574Z,81.91
2022-07-31T04:25:25.273Z,81.65
2022-07-31T04:25:57.915Z,81.42
2022-07-31T04:26:29.612Z,81.78
2022-07-31T04:27:01.896Z,81.44
2022-07-31T04:27:35.888Z,81.50
2022-07-31T04:28:19.721Z,81.90
2022-07-31T04:28:51.378Z,81.40
2022-07-31T04:29:27.548Z,81.84
2022-07-31T04:30:00.192Z,81.42
2022-07-31T04:30:31.801Z,81.52
2022-07-31T04:31:04.465Z,81.61
2022-07-31T04:31:37.073Z,81.30
2022-07-31T04:32:10.070Z,81.29
2022-07-31T04:32:43.862Z,81.95
2022-07-31T04:33:15.421Z,81.60
2022-07-31T04:33:48.809Z,80.97
2022-07-31T04:34:20.553Z,81.80
2022-07-31T04:34:52.278Z,81.56
2022-07-31T04:35:24.245Z,81.22
2022-07-31T04:35:57.441Z,81.57
2022-07-31T04:36:31.324Z,81.48
2022-07-31T04:37:03.110Z,81.34
2022-07-31T04:37:34.722Z,81.10
2022-07-31T04:38:06.330Z,81.16
2022-07-31T04:38:37.885Z,81.01
2022-07-31T04:39:09.708Z,81.01
2022-07-31T04:39:41.367Z,81.15
2022-07-31T04:40:13.221Z,81.22
2022-07-31T04:40:46.084Z,81.48
2022-07-31T04:41:17.833Z,81.27
2022-07-31T04:41:51.910Z,81.35
2022-07-31T04:42:23.644Z,81.71
2022-07-31T04:42:57.142Z,81.75
2022-07-31T04:43:29.974Z,81.38
2022-07-31T04:44:01.610Z,81.23
2022-07-31T04:44:33.239Z,81.36
2022-07-31T04:45:05.309Z,81.12
2022-07-31T04:45:40.232Z,81.12
2022-07-31T04:46:17.519Z,80.90
2022-07-31T04:46:58.091Z,81.53
2022-07-31T04:47:29.674Z,81.22
2022-07-31T04:48:01.280Z,81.69
2022-07-31T04:48:32.881Z,81.90
2022-07-31T04:49:04.604Z,82.00
2022-07-31T04:49:36.371Z,81.44
2022-07-31T04:50:09.669Z,81.63
2022-07-31T04:50:41.424Z,81.37
2022-07-31T04:51:23.086Z,81.38
2022-07-31T04:51:57.036Z,81.93
2022-07-31T04:52:29.017Z,81.72
2022-07-31T04:53:02.130Z,81.94
2022-07-31T04:53:39.132Z,81.66
2022-07-31T04:54:11.357Z,82.04
2022-07-31T04:54:43.943Z,81.72
2022-07-31T04:55:17.013Z,81.40
2022-07-31T04:56:08.540Z,81.18
2022-07-31T04:56:45.318Z,81.69
2022-07-31T04:57:21.780Z,81.72
2022-07-31T04:57:54.120Z,82.31
2022-07-31T04:58:25.686Z,82.38
2022-07-31T04:58:57.434Z,82.07
2022-07-31T04:59:59.003Z,81.99
2022-07-31T05:00:20.800Z,82.04
2022-07-31T05:00:52.384Z,81.96
2022-07-31T05:01:24.003Z,81.76
2022-07-31T05:01:56.430Z,82.29
2022-07-31T05:02:28.643Z,82.14
2022-07-31T05:03:00.294Z,82.43
2022-07-31T05:03:31.890Z,82.31
2022-07-31T05:04:04.655Z,82.57
2022-07-31T05:04:36.313Z,81.95
2022-07-31T05:05:08.372Z,82.28
2022-07-31T05:05:42.778Z,82.20
2022-07-31T05:06:14.376Z,82.41
2022-07-31T05:06:50.848Z,82.04
2022-07-31T05:07:23.265Z,82.48
2022-07-31T05:07:55.504Z,82.26
2022-07-31T05:08:27.070Z,82.71
2022-07-31T05:08:58.631Z,82.41
2022-07-31T05:09:36.391Z,82.45
2022-07-31T05:10:08.601Z,82.38
2022-07-31T05:10:58.781Z,82.59
2022-07-31T05:11:30.407Z,82.65
2022-07-31T05:12:02.203Z,82.89
2022-07-31T05:12:34.059Z,82.71
2022-07-31T05:13:05.640Z,82.93
2022-07-31T05:13:37.210Z,82.64
2022-07-31T05:14:11.111Z,82.58
2022-07-31T05:14:42.738Z,82.43
2022-07-31T05:15:16.218Z,82.57
2022-07-31T05:15:47.820Z,82.70
2022-07-31T05:16:20.857Z,82.53
2022-07-31T05:16:52.457Z,82.94
2022-07-31T05:17:24.058Z,82.95
2022-07-31T05:17:55.648Z,82.55
2022-07-31T05:18:28.132Z,82.42
2022-07-31T05:19:00.860Z,82.38
2022-07-31T05:19:32.523Z,82.45
2022-07-31T05:20:04.637Z,82.26
2022-07-31T05:20:36.199Z,82.35
2022-07-31T05:21:07.776Z,81.68
2022-07-31T05:21:46.982Z,81.97
2022-07-31T05:22:25.763Z,81.97
2022-07-31T05:22:57.346Z,81.50
2022-07-31T05:23:29.061Z,81.71
2022-07-31T05:24:00.901Z,81.84
2022-07-31T05:24:33.953Z,82.22
2022-07-31T05:25:06.059Z,82.41
2022-07-31T05:25:37.651Z,82.75
2022-07-31T05:26:09.962Z,82.72
2022-07-31T05:26:41.549Z,81.87
2022-07-31T05:27:13.132Z,82.19
2022-07-31T05:27:44.720Z,82.75
2022-07-31T05:28:29.809Z,83.27
2022-07-31T05:29:03.039Z,83.97
2022-07-31T05:29:34.626Z,83.48
2022-07-31T05:30:08.190Z,84.16
2022-07-31T05:30:39.785Z,84.70
2022-07-31T05:31:11.521Z,84.84
2022-07-31T05:32:09.674Z,84.82
2022-07-31T05:32:34.718Z,84.47
2022-07-31T05:33:06.961Z,84.35
2022-07-31T05:33:39.279Z,84.50
2022-07-31T05:34:10.976Z,84.14
2022-07-31T05:34:42.560Z,84.10
2022-07-31T05:35:15.046Z,84.44
2022-07-31T05:35:46.625Z,83.95
2022-07-31T05:36:19.416Z,83.99
2022-07-31T05:36:50.986Z,83.86
2022-07-31T05:37:23.161Z,83.70
2022-07-31T05:37:55.433Z,84.13
2022-07-31T05:38:27.823Z,83.60
2022-07-31T05:38:59.546Z,83.54
2022-07-31T05:39:31.483Z,83.29
2022-07-31T05:40:03.558Z,83.32
2022-07-31T05:40:35.144Z,83.56
2022-07-31T05:41:06.803Z,83.76
2022-07-31T05:41:38.645Z,83.79
2022-07-31T05:42:12.145Z,82.89
2022-07-31T05:42:44.841Z,83.18
2022-07-31T05:43:16.406Z,83.01
2022-07-31T05:43:47.999Z,83.65
2022-07-31T05:44:19.648Z,83.36
2022-07-31T05:44:51.247Z,83.36
2022-07-31T05:45:22.813Z,82.87
2022-07-31T05:45:54.920Z,82.83
2022-07-31T05:46:26.497Z,82.84
2022-07-31T05:47:40.260Z,82.80
2022-07-31T05:48:16.289Z,83.03
2022-07-31T05:48:47.906Z,83.06
2022-07-31T05:49:26.662Z,82.63
2022-07-31T05:49:58.450Z,82.72
2022-07-31T05:50:30.039Z,82.69
2022-07-31T05:51:05.376Z,82.46
2022-07-31T05:51:37.466Z,82.35
2022-07-31T05:52:09.038Z,82.45
2022-07-31T05:52:40.623Z,82.52
2022-07-31T05:53:15.033Z,82.35
2022-07-31T05:53:46.828Z,82.73
2022-07-31T05:54:18.391Z,82.86
2022-07-31T05:54:49.962Z,82.63
2022-07-31T05:55:21.802Z,82.88
2022-07-31T05:55:53.466Z,82.80
2022-07-31T05:56:26.143Z,82.73
2022-07-31T05:56:58.016Z,81.93
2022-07-31T05:57:33.653Z,82.02
2022-07-31T05:58:05.915Z,82.13
2022-07-31T05:58:37.801Z,82.46
2022-07-31T05:59:11.790Z,82.27
2022-07-31T05:59:43.437Z,81.86
2022-07-31T06:00:19.011Z,81.67
2022-07-31T06:00:50.800Z,81.32
2022-07-31T06:01:22.442Z,81.99
2022-07-31T06:01:54.171Z,81.49
2022-07-31T06:02:26.895Z,81.80
2022-07-31T06:03:00.039Z,81.59
2022-07-31T06:03:38.516Z,81.83
2022-07-31T06:04:24.403Z,82.36
2022-07-31T06:04:55.970Z,82.04
2022-07-31T06:05:28.828Z,81.80
2022-07-31T06:06:00.472Z,81.12
2022-07-31T06:06:32.091Z,81.56
2022-07-31T06:07:03.679Z,81.41
2022-07-31T06:07:35.597Z,81.46
2022-07-31T06:08:08.783Z,81.70
2022-07-31T06:08:40.405Z,81.21
2022-07-31T06:09:12.057Z,81.55
2022-07-31T06:09:43.619Z,80.93
2022-07-31T06:10:19.245Z,80.80
2022-07-31T06:10:50.834Z,80.99
2022-07-31T06:11:22.404Z,80.98
2022-07-31T06:11:53.995Z,80.92
2022-07-31T06:12:25.669Z,81.12
2022-07-31T06:12:57.249Z,80.94
2022-07-31T06:13:30.260Z,81.15
2022-07-31T06:14:01.837Z,81.05
2022-07-31T06:14:33.408Z,80.85
2022-07-31T06:15:05.469Z,80.98
2022-07-31T06:15:37.074Z,81.51
2022-07-31T06:16:13.780Z,81.01
2022-07-31T06:16:47.779Z,81.10
2022-07-31T06:17:19.414Z,81.18
2022-07-31T06:17:51.026Z,80.99
2022-07-31T06:18:24.003Z,81.39
2022-07-31T06:18:55.576Z,80.52
2022-07-31T06:19:27.138Z,80.63
2022-07-31T06:19:58.719Z,81.26
2022-07-31T06:20:30.681Z,80.70
2022-07-31T06:21:02.247Z,80.94
2022-07-31T06:21:33.808Z,81.18
2022-07-31T06:22:05.839Z,80.84
2022-07-31T06:22:39.597Z,80.73
2022-07-31T06:23:22.561Z,80.98
2022-07-31T06:23:54.784Z,81.55
2022-07-31T06:24:26.940Z,80.95
2022-07-31T06:24:59.781Z,80.83
2022-07-31T06:25:35.000Z,81.30
2022-07-31T06:26:10.427Z,81.03
2022-07-31T06:26:42.002Z,80.76
2022-07-31T06:27:18.777Z,80.62
2022-07-31T06:28:05.471Z,81.14
2022-07-31T06:28:47.461Z,81.03
2022-07-31T06:29:20.029Z,80.70
2022-07-31T06:30:12.619Z,81.81
2022-07-31T06:30:44.176Z,81.06
2022-07-31T06:31:20.916Z,80.95
2022-07-31T06:31:52.512Z,81.02
2022-07-31T06:32:24.341Z,81.65
2022-07-31T06:32:55.899Z,81.17
2022-07-31T06:33:37.436Z,81.27
2022-07-31T06:34:09.649Z,81.36
2022-07-31T06:34:42.061Z,81.19
2022-07-31T06:35:13.694Z,82.06
2022-07-31T06:35:45.245Z,82.12
2022-07-31T06:36:17.397Z,81.34
2022-07-31T06:36:49.737Z,81.26
2022-07-31T06:37:21.297Z,81.23
2022-07-31T06:37:52.946Z,80.89
2022-07-31T06:38:24.533Z,81.47
2022-07-31T06:38:56.248Z,80.88
2022-07-31T06:39:54.028Z,81.58
2022-07-31T06:40:19.505Z,81.65
2022-07-31T06:40:51.604Z,81.55
2022-07-31T06:41:41.752Z,81.32
2022-07-31T06:42:21.560Z,81.51
2022-07-31T06:42:53.222Z,81.53
2022-07-31T06:43:24.887Z,81.56
2022-07-31T06:43:56.478Z,81.59
2022-07-31T06:44:28.819Z,81.18
2022-07-31T06:45:00.450Z,80.77
2022-07-31T06:45:51.732Z,80.43
2022-07-31T06:46:23.662Z,80.35
2022-07-31T06:46:55.339Z,80.17
2022-07-31T06:47:27.072Z,80.41
2022-07-31T06:47:58.726Z,79.61
2022-07-31T06:48:30.295Z,79.93
2022-07-31T06:49:05.531Z,79.64
2022-07-31T06:49:40.841Z,80.04
2022-07-31T06:50:12.482Z,79.63
2022-07-31T06:50:44.506Z,79.59
2022-07-31T06:51:32.366Z,79.44
2022-07-31T06:52:04.962Z,79.32
2022-07-31T06:52:38.453Z,79.17
2022-07-31T06:53:10.026Z,79.31
2022-07-31T06:53:45.284Z,79.51
2022-07-31T06:54:17.123Z,79.19
2022-07-31T06:54:48.855Z,79.94
2022-07-31T06:55:20.451Z,78.75
2022-07-31T06:55:55.393Z,79.05
2022-07-31T06:56:27.553Z,79.70
2022-07-31T06:56:59.163Z,79.09
2022-07-31T06:57:30.841Z,78.96
2022-07-31T06:58:02.448Z,79.01
2022-07-31T06:58:34.102Z,78.53
2022-07-31T06:59:07.154Z,78.83
2022-07-31T06:59:39.560Z,78.84
2022-07-31T07:00:20.020Z,78.61
2022-07-31T07:00:52.330Z,78.81
2022-07-31T07:01:24.020Z,78.14
2022-07-31T07:01:55.676Z,78.43
2022-07-31T07:02:27.254Z,78.31
2022-07-31T07:02:58.908Z,78.28
2022-07-31T07:03:30.509Z,78.59
2022-07-31T07:04:02.443Z,78.85
2022-07-31T07:04:57.440Z,78.66
2022-07-31T07:05:25.888Z,78.30
2022-07-31T07:05:57.547Z,78.52
2022-07-31T07:06:29.227Z,78.09
2022-07-31T07:07:00.857Z,78.52
2022-07-31T07:07:35.020Z,78.04
2022-07-31T07:08:06.614Z,78.70
2022-07-31T07:08:38.220Z,78.51
2022-07-31T07:09:09.843Z,78.34
2022-07-31T07:09:41.640Z,77.52
2022-07-31T07:10:13.531Z,78.02
2022-07-31T07:10:45.123Z,77.47
2022-07-31T07:11:17.263Z,78.15
2022-07-31T07:11:53.123Z,78.41
2022-07-31T07:12:26.891Z,78.01
2022-07-31T07:12:59.582Z,77.87
2022-07-31T07:13:46.325Z,77.45
2022-07-31T07:14:18.464Z,77.42
2022-07-31T07:14:50.502Z,77.65
2022-07-31T07:15:22.150Z,77.77
2022-07-31T07:15:53.723Z,76.93
2022-07-31T07:16:25.604Z,77.61
2022-07-31T07:16:57.238Z,77.14
2022-07-31T07:17:29.688Z,77.11
2022-07-31T07:18:02.701Z,77.52
2022-07-31T07:18:34.487Z,77.32
2022-07-31T07:19:08.102Z,77.11
2022-07-31T07:19:41.486Z,76.98